Desbarats, Canada
Current Conditions -  °F | °C
As of 4:35 PM on Thursday 27 Nov 2014 (Local Time) from KDRM Reporting Station
Clear Clear  
Wind Chill:   Ceiling: Unl
Heat Index: 17°   Visibility: 10mi
Dew Point: 11°   Wind: 13mph
Humidity: 77%   Direction: 320°NW
Pressure: 30.19"   Gusts: 21mph
Location:  46.33°N, 83.93°W
Report Text: KDRM 272135Z AUTO 32011G18KT 10SM CLR M08/M12 A3019 RMK AO2 T10831117
Loading
Personal Weather Stations






























Interactive Weather Map New forecast layout! Learn more

10-Day Weather Forecast

Advertisements
Track Severe Weather on mobile